sensor_id;sensor_type;location;lat;lon;timestamp;P1;durP1;ratioP1;P2;durP2;ratioP2
75248;SDS011;63845;55.688;37.578;2022-10-20T00:01:53;4.15;;;2.08;;
75248;SDS011;63845;55.688;37.578;2022-10-20T00:04:18;3.28;;;2.10;;
75248;SDS011;63845;55.688;37.578;2022-10-20T00:06:44;4.25;;;2.08;;
75248;SDS011;63845;55.688;37.578;2022-10-20T00:09:09;3.95;;;1.90;;
75248;SDS011;63845;55.688;37.578;2022-10-20T00:11:35;3.22;;;2.00;;
75248;SDS011;63845;55.688;37.578;2022-10-20T00:14:01;4.03;;;1.77;;
75248;SDS011;63845;55.688;37.578;2022-10-20T00:16:28;4.53;;;1.98;;
75248;SDS011;63845;55.688;37.578;2022-10-20T00:18:54;5.43;;;1.80;;
75248;SDS011;63845;55.688;37.578;2022-10-20T00:21:22;5.18;;;1.80;;
75248;SDS011;63845;55.688;37.578;2022-10-20T00:23:48;4.03;;;2.03;;
75248;SDS011;63845;55.688;37.578;2022-10-20T00:28:41;3.45;;;1.90;;
75248;SDS011;63845;55.688;37.578;2022-10-20T00:31:07;3.17;;;1.60;;
75248;SDS011;63845;55.688;37.578;2022-10-20T00:33:33;4.15;;;1.70;;
75248;SDS011;63845;55.688;37.578;2022-10-20T00:36:00;3.30;;;1.80;;
75248;SDS011;63845;55.688;37.578;2022-10-20T00:38:27;3.75;;;1.80;;
75248;SDS011;63845;55.688;37.578;2022-10-20T00:40:52;3.17;;;1.58;;
75248;SDS011;63845;55.688;37.578;2022-10-20T00:43:18;2.35;;;1.35;;
75248;SDS011;63845;55.688;37.578;2022-10-20T00:45:44;3.63;;;1.80;;
75248;SDS011;63845;55.688;37.578;2022-10-20T00:48:17;4.35;;;2.33;;
75248;SDS011;63845;55.688;37.578;2022-10-20T00:50:51;3.25;;;1.52;;
75248;SDS011;63845;55.688;37.578;2022-10-20T00:53:20;4.65;;;1.67;;
75248;SDS011;63845;55.688;37.578;2022-10-20T00:55:48;5.28;;;1.60;;
75248;SDS011;63845;55.688;37.578;2022-10-20T00:58:16;2.88;;;1.45;;
75248;SDS011;63845;55.688;37.578;2022-10-20T01:00:42;3.67;;;1.70;;
75248;SDS011;63845;55.688;37.578;2022-10-20T01:03:11;3.25;;;1.70;;
75248;SDS011;63845;55.688;37.578;2022-10-20T01:05:40;3.77;;;1.90;;
75248;SDS011;63845;55.688;37.578;2022-10-20T01:08:06;3.72;;;1.90;;
75248;SDS011;63845;55.688;37.578;2022-10-20T01:10:34;4.03;;;1.77;;
75248;SDS011;63845;55.688;37.578;2022-10-20T01:15:56;2.95;;;1.60;;
75248;SDS011;63845;55.688;37.578;2022-10-20T01:38:13;4.55;;;2.45;;
75248;SDS011;63845;55.688;37.578;2022-10-20T01:40:42;4.97;;;2.47;;
75248;SDS011;63845;55.688;37.578;2022-10-20T01:45:41;3.88;;;2.30;;
75248;SDS011;63845;55.688;37.578;2022-10-20T01:48:09;4.63;;;2.22;;
75248;SDS011;63845;55.688;37.578;2022-10-20T01:50:37;3.78;;;2.15;;
75248;SDS011;63845;55.688;37.578;2022-10-20T01:53:05;4.55;;;2.30;;
75248;SDS011;63845;55.688;37.578;2022-10-20T01:55:31;3.72;;;2.42;;
75248;SDS011;63845;55.688;37.578;2022-10-20T01:58:08;3.53;;;2.03;;
75248;SDS011;63845;55.688;37.578;2022-10-20T02:00:56;5.07;;;2.00;;
75248;SDS011;63845;55.688;37.578;2022-10-20T02:06:07;3.30;;;1.80;;
75248;SDS011;63845;55.688;37.578;2022-10-20T02:08:42;2.92;;;1.63;;
75248;SDS011;63845;55.688;37.578;2022-10-20T02:11:18;3.10;;;1.70;;
75248;SDS011;63845;55.688;37.578;2022-10-20T02:13:58;2.53;;;1.50;;
75248;SDS011;63845;55.688;37.578;2022-10-20T02:16:31;2.70;;;1.52;;
75248;SDS011;63845;55.688;37.578;2022-10-20T02:19:24;3.15;;;1.60;;
75248;SDS011;63845;55.688;37.578;2022-10-20T02:21:53;2.72;;;1.35;;
75248;SDS011;63845;55.688;37.578;2022-10-20T02:24:22;2.90;;;1.40;;
75248;SDS011;63845;55.688;37.578;2022-10-20T02:26:51;2.67;;;1.45;;
75248;SDS011;63845;55.688;37.578;2022-10-20T02:29:21;2.50;;;1.40;;
75248;SDS011;63845;55.688;37.578;2022-10-20T02:31:53;2.67;;;1.40;;
75248;SDS011;63845;55.688;37.578;2022-10-20T02:34:19;2.22;;;1.20;;
75248;SDS011;63845;55.688;37.578;2022-10-20T02:36:44;2.05;;;1.30;;
75248;SDS011;63845;55.688;37.578;2022-10-20T02:39:10;3.03;;;1.30;;
75248;SDS011;63845;55.688;37.578;2022-10-20T02:41:36;3.10;;;1.20;;
75248;SDS011;63845;55.688;37.578;2022-10-20T02:44:02;2.30;;;1.30;;
75248;SDS011;63845;55.688;37.578;2022-10-20T02:46:28;2.10;;;1.27;;
75248;SDS011;63845;55.688;37.578;2022-10-20T02:48:53;2.70;;;1.27;;
75248;SDS011;63845;55.688;37.578;2022-10-20T02:51:18;2.90;;;1.08;;
75248;SDS011;63845;55.688;37.578;2022-10-20T02:53:44;2.00;;;1.00;;
75248;SDS011;63845;55.688;37.578;2022-10-20T02:56:10;2.25;;;1.00;;
75248;SDS011;63845;55.688;37.578;2022-10-20T02:58:36;3.55;;;1.38;;
75248;SDS011;63845;55.688;37.578;2022-10-20T03:01:02;2.55;;;1.10;;
75248;SDS011;63845;55.688;37.578;2022-10-20T03:03:28;2.60;;;1.20;;
75248;SDS011;63845;55.688;37.578;2022-10-20T03:05:53;2.17;;;1.00;;
75248;SDS011;63845;55.688;37.578;2022-10-20T03:08:19;3.00;;;1.10;;
75248;SDS011;63845;55.688;37.578;2022-10-20T03:10:45;5.30;;;1.63;;
75248;SDS011;63845;55.688;37.578;2022-10-20T03:13:10;4.85;;;2.00;;
75248;SDS011;63845;55.688;37.578;2022-10-20T03:15:36;3.47;;;1.80;;
75248;SDS011;63845;55.688;37.578;2022-10-20T03:18:02;3.88;;;1.92;;
75248;SDS011;63845;55.688;37.578;2022-10-20T03:20:28;4.85;;;2.03;;
75248;SDS011;63845;55.688;37.578;2022-10-20T03:22:53;5.07;;;2.70;;
75248;SDS011;63845;55.688;37.578;2022-10-20T03:25:19;4.72;;;2.75;;
75248;SDS011;63845;55.688;37.578;2022-10-20T03:27:44;6.25;;;2.70;;
75248;SDS011;63845;55.688;37.578;2022-10-20T03:30:10;6.15;;;4.00;;
75248;SDS011;63845;55.688;37.578;2022-10-20T03:32:35;7.10;;;3.83;;
75248;SDS011;63845;55.688;37.578;2022-10-20T03:35:01;6.60;;;4.40;;
75248;SDS011;63845;55.688;37.578;2022-10-20T03:37:27;10.88;;;4.63;;
75248;SDS011;63845;55.688;37.578;2022-10-20T03:39:53;8.18;;;4.28;;
75248;SDS011;63845;55.688;37.578;2022-10-20T03:42:18;6.03;;;3.60;;
75248;SDS011;63845;55.688;37.578;2022-10-20T03:44:44;7.60;;;4.10;;
75248;SDS011;63845;55.688;37.578;2022-10-20T03:47:10;8.57;;;4.20;;
75248;SDS011;63845;55.688;37.578;2022-10-20T03:49:37;6.10;;;3.80;;
75248;SDS011;63845;55.688;37.578;2022-10-20T03:52:03;7.60;;;4.47;;
75248;SDS011;63845;55.688;37.578;2022-10-20T03:54:49;7.93;;;4.55;;
75248;SDS011;63845;55.688;37.578;2022-10-20T03:57:18;7.78;;;4.63;;
75248;SDS011;63845;55.688;37.578;2022-10-20T03:59:46;8.07;;;5.38;;
75248;SDS011;63845;55.688;37.578;2022-10-20T04:02:22;7.70;;;4.90;;
75248;SDS011;63845;55.688;37.578;2022-10-20T04:04:55;8.27;;;5.68;;
75248;SDS011;63845;55.688;37.578;2022-10-20T04:07:21;8.30;;;6.05;;
75248;SDS011;63845;55.688;37.578;2022-10-20T04:09:46;9.93;;;5.97;;
75248;SDS011;63845;55.688;37.578;2022-10-20T04:12:12;11.27;;;7.10;;
75248;SDS011;63845;55.688;37.578;2022-10-20T04:14:37;11.07;;;7.50;;
75248;SDS011;63845;55.688;37.578;2022-10-20T04:17:02;11.55;;;6.82;;
75248;SDS011;63845;55.688;37.578;2022-10-20T04:19:28;10.23;;;6.65;;
75248;SDS011;63845;55.688;37.578;2022-10-20T04:21:53;10.68;;;7.38;;
75248;SDS011;63845;55.688;37.578;2022-10-20T04:24:19;10.55;;;5.78;;
75248;SDS011;63845;55.688;37.578;2022-10-20T04:26:44;7.95;;;5.70;;
75248;SDS011;63845;55.688;37.578;2022-10-20T04:29:11;8.32;;;5.07;;
75248;SDS011;63845;55.688;37.578;2022-10-20T04:31:37;7.38;;;4.88;;
75248;SDS011;63845;55.688;37.578;2022-10-20T04:34:02;9.43;;;4.70;;
75248;SDS011;63845;55.688;37.578;2022-10-20T04:36:27;7.28;;;4.70;;
75248;SDS011;63845;55.688;37.578;2022-10-20T04:38:53;7.70;;;5.15;;
75248;SDS011;63845;55.688;37.578;2022-10-20T04:41:18;6.85;;;4.88;;
75248;SDS011;63845;55.688;37.578;2022-10-20T04:43:48;12.48;;;5.63;;
75248;SDS011;63845;55.688;37.578;2022-10-20T04:46:15;9.32;;;5.10;;
75248;SDS011;63845;55.688;37.578;2022-10-20T04:48:41;7.82;;;5.35;;
75248;SDS011;63845;55.688;37.578;2022-10-20T04:51:09;9.15;;;5.80;;
75248;SDS011;63845;55.688;37.578;2022-10-20T04:53:36;8.10;;;5.57;;
75248;SDS011;63845;55.688;37.578;2022-10-20T04:56:02;8.25;;;5.40;;
75248;SDS011;63845;55.688;37.578;2022-10-20T04:58:29;9.50;;;5.90;;
75248;SDS011;63845;55.688;37.578;2022-10-20T05:00:58;11.95;;;6.32;;
75248;SDS011;63845;55.688;37.578;2022-10-20T05:03:25;8.82;;;6.30;;
75248;SDS011;63845;55.688;37.578;2022-10-20T05:05:51;8.90;;;5.88;;
75248;SDS011;63845;55.688;37.578;2022-10-20T05:08:16;10.73;;;6.18;;
75248;SDS011;63845;55.688;37.578;2022-10-20T05:10:48;9.90;;;6.72;;
75248;SDS011;63845;55.688;37.578;2022-10-20T05:13:13;10.60;;;6.37;;
75248;SDS011;63845;55.688;37.578;2022-10-20T05:15:39;11.25;;;7.03;;
75248;SDS011;63845;55.688;37.578;2022-10-20T05:18:04;9.18;;;6.55;;
75248;SDS011;63845;55.688;37.578;2022-10-20T05:20:29;10.07;;;6.30;;
75248;SDS011;63845;55.688;37.578;2022-10-20T05:22:55;9.63;;;6.65;;
75248;SDS011;63845;55.688;37.578;2022-10-20T05:25:20;10.60;;;6.47;;
75248;SDS011;63845;55.688;37.578;2022-10-20T05:27:46;11.38;;;6.63;;
75248;SDS011;63845;55.688;37.578;2022-10-20T05:30:11;9.73;;;6.18;;
75248;SDS011;63845;55.688;37.578;2022-10-20T05:32:36;9.10;;;6.40;;
75248;SDS011;63845;55.688;37.578;2022-10-20T05:35:02;9.75;;;6.03;;
75248;SDS011;63845;55.688;37.578;2022-10-20T05:37:27;9.20;;;5.90;;
75248;SDS011;63845;55.688;37.578;2022-10-20T05:39:53;14.35;;;7.78;;
75248;SDS011;63845;55.688;37.578;2022-10-20T05:42:18;13.43;;;7.80;;
75248;SDS011;63845;55.688;37.578;2022-10-20T05:44:44;10.90;;;7.47;;
75248;SDS011;63845;55.688;37.578;2022-10-20T05:47:11;12.15;;;8.05;;
75248;SDS011;63845;55.688;37.578;2022-10-20T05:49:37;10.90;;;7.50;;
75248;SDS011;63845;55.688;37.578;2022-10-20T05:52:02;12.90;;;8.52;;
75248;SDS011;63845;55.688;37.578;2022-10-20T05:54:28;12.45;;;7.10;;
75248;SDS011;63845;55.688;37.578;2022-10-20T05:56:53;12.73;;;7.35;;
75248;SDS011;63845;55.688;37.578;2022-10-20T05:59:18;13.15;;;7.63;;
75248;SDS011;63845;55.688;37.578;2022-10-20T06:01:44;13.63;;;6.80;;
75248;SDS011;63845;55.688;37.578;2022-10-20T06:04:14;11.45;;;7.38;;
75248;SDS011;63845;55.688;37.578;2022-10-20T06:06:52;12.27;;;7.38;;
75248;SDS011;63845;55.688;37.578;2022-10-20T06:09:18;13.25;;;6.85;;
75248;SDS011;63845;55.688;37.578;2022-10-20T06:11:45;10.82;;;4.75;;
75248;SDS011;63845;55.688;37.578;2022-10-20T06:14:10;9.88;;;5.50;;
75248;SDS011;63845;55.688;37.578;2022-10-20T06:16:36;7.57;;;4.50;;
75248;SDS011;63845;55.688;37.578;2022-10-20T06:19:02;7.10;;;4.50;;
75248;SDS011;63845;55.688;37.578;2022-10-20T06:21:28;8.57;;;5.03;;
75248;SDS011;63845;55.688;37.578;2022-10-20T06:23:59;9.60;;;4.65;;
75248;SDS011;63845;55.688;37.578;2022-10-20T06:26:27;6.32;;;4.05;;
75248;SDS011;63845;55.688;37.578;2022-10-20T06:29:06;6.05;;;3.88;;
75248;SDS011;63845;55.688;37.578;2022-10-20T06:31:35;5.80;;;3.80;;
75248;SDS011;63845;55.688;37.578;2022-10-20T06:34:05;7.63;;;4.93;;
75248;SDS011;63845;55.688;37.578;2022-10-20T06:36:34;6.07;;;4.30;;
75248;SDS011;63845;55.688;37.578;2022-10-20T06:39:01;9.20;;;4.35;;
75248;SDS011;63845;55.688;37.578;2022-10-20T06:41:29;8.05;;;3.97;;
75248;SDS011;63845;55.688;37.578;2022-10-20T06:43:55;7.22;;;4.05;;
75248;SDS011;63845;55.688;37.578;2022-10-20T06:46:25;5.90;;;3.78;;
75248;SDS011;63845;55.688;37.578;2022-10-20T06:48:52;5.18;;;3.70;;
75248;SDS011;63845;55.688;37.578;2022-10-20T06:51:17;5.65;;;3.55;;
75248;SDS011;63845;55.688;37.578;2022-10-20T06:53:46;6.82;;;4.00;;
75248;SDS011;63845;55.688;37.578;2022-10-20T06:56:16;5.30;;;3.45;;
75248;SDS011;63845;55.688;37.578;2022-10-20T06:58:44;5.43;;;3.40;;
75248;SDS011;63845;55.688;37.578;2022-10-20T07:01:12;6.18;;;3.88;;
75248;SDS011;63845;55.688;37.578;2022-10-20T07:03:39;6.88;;;3.63;;
75248;SDS011;63845;55.688;37.578;2022-10-20T07:06:05;7.05;;;3.10;;
75248;SDS011;63845;55.688;37.578;2022-10-20T07:08:36;5.95;;;3.78;;
75248;SDS011;63845;55.688;37.578;2022-10-20T07:11:03;7.20;;;3.42;;
75248;SDS011;63845;55.688;37.578;2022-10-20T07:13:34;10.10;;;4.10;;
75248;SDS011;63845;55.688;37.578;2022-10-20T07:16:00;6.63;;;3.50;;
75248;SDS011;63845;55.688;37.578;2022-10-20T07:18:27;5.78;;;2.85;;
75248;SDS011;63845;55.688;37.578;2022-10-20T07:20:57;7.50;;;3.13;;
75248;SDS011;63845;55.688;37.578;2022-10-20T07:23:24;7.95;;;3.65;;
75248;SDS011;63845;55.688;37.578;2022-10-20T07:25:50;8.10;;;3.53;;
75248;SDS011;63845;55.688;37.578;2022-10-20T07:28:16;8.45;;;3.65;;
75248;SDS011;63845;55.688;37.578;2022-10-20T07:30:42;8.70;;;3.92;;
75248;SDS011;63845;55.688;37.578;2022-10-20T07:33:07;6.15;;;3.35;;
75248;SDS011;63845;55.688;37.578;2022-10-20T07:35:34;7.30;;;3.60;;
75248;SDS011;63845;55.688;37.578;2022-10-20T07:38:00;6.85;;;3.35;;
75248;SDS011;63845;55.688;37.578;2022-10-20T07:40:26;6.40;;;3.30;;
75248;SDS011;63845;55.688;37.578;2022-10-20T07:42:51;6.60;;;3.83;;
75248;SDS011;63845;55.688;37.578;2022-10-20T07:45:17;6.22;;;3.65;;
75248;SDS011;63845;55.688;37.578;2022-10-20T07:47:43;7.15;;;3.50;;
75248;SDS011;63845;55.688;37.578;2022-10-20T07:50:08;6.75;;;3.10;;
75248;SDS011;63845;55.688;37.578;2022-10-20T07:52:34;4.97;;;2.67;;
75248;SDS011;63845;55.688;37.578;2022-10-20T07:54:59;6.82;;;3.00;;
75248;SDS011;63845;55.688;37.578;2022-10-20T07:57:25;8.18;;;3.20;;
75248;SDS011;63845;55.688;37.578;2022-10-20T07:59:50;4.68;;;2.80;;
75248;SDS011;63845;55.688;37.578;2022-10-20T08:02:16;4.85;;;2.90;;
75248;SDS011;63845;55.688;37.578;2022-10-20T08:04:41;3.75;;;2.20;;
75248;SDS011;63845;55.688;37.578;2022-10-20T08:07:08;4.90;;;2.30;;
75248;SDS011;63845;55.688;37.578;2022-10-20T08:09:35;3.80;;;2.20;;
75248;SDS011;63845;55.688;37.578;2022-10-20T08:12:01;5.28;;;2.20;;
75248;SDS011;63845;55.688;37.578;2022-10-20T08:14:27;3.65;;;2.40;;
75248;SDS011;63845;55.688;37.578;2022-10-20T08:16:55;3.28;;;1.90;;
75248;SDS011;63845;55.688;37.578;2022-10-20T08:19:21;4.88;;;2.10;;
75248;SDS011;63845;55.688;37.578;2022-10-20T08:21:47;4.45;;;2.47;;
75248;SDS011;63845;55.688;37.578;2022-10-20T08:24:12;6.68;;;2.47;;
75248;SDS011;63845;55.688;37.578;2022-10-20T08:26:37;5.07;;;2.53;;
75248;SDS011;63845;55.688;37.578;2022-10-20T08:29:03;7.35;;;2.63;;
75248;SDS011;63845;55.688;37.578;2022-10-20T08:31:28;7.35;;;3.05;;
75248;SDS011;63845;55.688;37.578;2022-10-20T08:33:54;4.75;;;3.00;;
75248;SDS011;63845;55.688;37.578;2022-10-20T08:36:20;5.32;;;2.72;;
75248;SDS011;63845;55.688;37.578;2022-10-20T08:38:46;4.28;;;2.47;;
75248;SDS011;63845;55.688;37.578;2022-10-20T08:41:19;4.97;;;2.88;;
75248;SDS011;63845;55.688;37.578;2022-10-20T08:43:47;7.45;;;3.00;;
75248;SDS011;63845;55.688;37.578;2022-10-20T08:46:15;5.35;;;2.80;;
75248;SDS011;63845;55.688;37.578;2022-10-20T08:48:42;5.47;;;3.05;;
75248;SDS011;63845;55.688;37.578;2022-10-20T08:51:14;5.22;;;3.03;;
75248;SDS011;63845;55.688;37.578;2022-10-20T08:53:44;4.55;;;2.40;;
75248;SDS011;63845;55.688;37.578;2022-10-20T08:56:11;5.03;;;1.98;;
75248;SDS011;63845;55.688;37.578;2022-10-20T08:58:40;3.55;;;1.77;;
75248;SDS011;63845;55.688;37.578;2022-10-20T09:01:13;3.30;;;1.75;;
75248;SDS011;63845;55.688;37.578;2022-10-20T09:04:19;4.20;;;1.90;;
75248;SDS011;63845;55.688;37.578;2022-10-20T09:06:50;4.53;;;1.83;;
75248;SDS011;63845;55.688;37.578;2022-10-20T09:09:19;6.63;;;1.93;;
75248;SDS011;63845;55.688;37.578;2022-10-20T09:11:46;3.90;;;1.90;;
75248;SDS011;63845;55.688;37.578;2022-10-20T09:14:12;3.13;;;1.70;;
75248;SDS011;63845;55.688;37.578;2022-10-20T09:16:39;4.10;;;1.80;;
75248;SDS011;63845;55.688;37.578;2022-10-20T09:19:06;3.47;;;1.85;;
75248;SDS011;63845;55.688;37.578;2022-10-20T09:21:40;3.35;;;2.05;;
75248;SDS011;63845;55.688;37.578;2022-10-20T09:24:07;4.80;;;1.90;;
75248;SDS011;63845;55.688;37.578;2022-10-20T09:26:34;2.92;;;1.83;;
75248;SDS011;63845;55.688;37.578;2022-10-20T09:29:12;5.80;;;2.20;;
75248;SDS011;63845;55.688;37.578;2022-10-20T09:36:56;5.03;;;2.05;;
75248;SDS011;63845;55.688;37.578;2022-10-20T09:39:47;3.40;;;1.90;;
75248;SDS011;63845;55.688;37.578;2022-10-20T09:42:35;4.15;;;1.90;;
75248;SDS011;63845;55.688;37.578;2022-10-20T09:47:40;2.50;;;1.65;;
75248;SDS011;63845;55.688;37.578;2022-10-20T09:52:52;3.92;;;1.77;;
75248;SDS011;63845;55.688;37.578;2022-10-20T09:57:47;5.75;;;2.10;;
75248;SDS011;63845;55.688;37.578;2022-10-20T10:00:23;4.82;;;2.30;;
75248;SDS011;63845;55.688;37.578;2022-10-20T10:05:56;4.07;;;2.17;;
75248;SDS011;63845;55.688;37.578;2022-10-20T10:08:24;4.50;;;2.30;;
75248;SDS011;63845;55.688;37.578;2022-10-20T10:10:57;3.97;;;2.17;;
75248;SDS011;63845;55.688;37.578;2022-10-20T10:13:25;4.75;;;2.03;;
75248;SDS011;63845;55.688;37.578;2022-10-20T10:15:57;3.53;;;2.20;;
75248;SDS011;63845;55.688;37.578;2022-10-20T10:18:25;4.18;;;2.35;;
75248;SDS011;63845;55.688;37.578;2022-10-20T10:20:58;4.85;;;2.25;;
75248;SDS011;63845;55.688;37.578;2022-10-20T10:23:26;3.80;;;1.92;;
75248;SDS011;63845;55.688;37.578;2022-10-20T10:25:54;3.20;;;2.05;;
75248;SDS011;63845;55.688;37.578;2022-10-20T10:28:26;4.20;;;1.90;;
75248;SDS011;63845;55.688;37.578;2022-10-20T10:31:04;5.18;;;2.47;;
75248;SDS011;63845;55.688;37.578;2022-10-20T10:33:30;3.45;;;1.88;;
75248;SDS011;63845;55.688;37.578;2022-10-20T10:35:57;6.25;;;2.17;;
75248;SDS011;63845;55.688;37.578;2022-10-20T10:38:27;3.95;;;2.00;;
75248;SDS011;63845;55.688;37.578;2022-10-20T10:51:00;3.63;;;1.88;;
75248;SDS011;63845;55.688;37.578;2022-10-20T11:21:27;4.40;;;2.10;;
75248;SDS011;63845;55.688;37.578;2022-10-20T11:24:20;4.80;;;2.03;;
75248;SDS011;63845;55.688;37.578;2022-10-20T11:27:10;4.78;;;2.10;;
75248;SDS011;63845;55.688;37.578;2022-10-20T11:29:50;2.90;;;1.10;;
75248;SDS011;63845;55.688;37.578;2022-10-20T11:41:02;2.40;;;1.30;;
75248;SDS011;63845;55.688;37.578;2022-10-20T11:43:42;4.85;;;1.58;;
75248;SDS011;63845;55.688;37.578;2022-10-20T11:46:15;4.25;;;1.40;;
75248;SDS011;63845;55.688;37.578;2022-10-20T11:48:51;3.60;;;1.60;;
75248;SDS011;63845;55.688;37.578;2022-10-20T12:05:17;4.40;;;1.80;;
75248;SDS011;63845;55.688;37.578;2022-10-20T12:12:54;4.15;;;1.42;;
75248;SDS011;63845;55.688;37.578;2022-10-20T12:15:23;4.03;;;1.10;;
75248;SDS011;63845;55.688;37.578;2022-10-20T12:17:52;4.32;;;1.30;;
75248;SDS011;63845;55.688;37.578;2022-10-20T12:22:45;4.50;;;1.00;;
75248;SDS011;63845;55.688;37.578;2022-10-20T12:25:18;2.20;;;1.10;;
75248;SDS011;63845;55.688;37.578;2022-10-20T12:27:46;2.55;;;1.30;;
75248;SDS011;63845;55.688;37.578;2022-10-20T12:33:18;2.05;;;1.17;;
75248;SDS011;63845;55.688;37.578;2022-10-20T12:38:46;6.43;;;1.50;;
75248;SDS011;63845;55.688;37.578;2022-10-20T12:44:04;3.78;;;1.40;;
75248;SDS011;63845;55.688;37.578;2022-10-20T12:46:39;7.20;;;1.50;;
75248;SDS011;63845;55.688;37.578;2022-10-20T12:49:07;4.18;;;1.38;;
75248;SDS011;63845;55.688;37.578;2022-10-20T12:51:51;5.78;;;1.38;;
75248;SDS011;63845;55.688;37.578;2022-10-20T12:57:00;5.28;;;2.00;;
75248;SDS011;63845;55.688;37.578;2022-10-20T13:18:01;4.32;;;1.60;;
75248;SDS011;63845;55.688;37.578;2022-10-20T13:24:27;3.00;;;1.45;;
75248;SDS011;63845;55.688;37.578;2022-10-20T13:26:48;5.55;;;1.83;;
75248;SDS011;63845;55.688;37.578;2022-10-20T13:29:21;5.22;;;1.60;;
75248;SDS011;63845;55.688;37.578;2022-10-20T13:34:40;3.05;;;1.70;;
75248;SDS011;63845;55.688;37.578;2022-10-20T13:51:04;5.90;;;1.75;;
75248;SDS011;63845;55.688;37.578;2022-10-20T13:53:39;4.20;;;1.25;;
75248;SDS011;63845;55.688;37.578;2022-10-20T13:56:18;3.85;;;1.10;;
75248;SDS011;63845;55.688;37.578;2022-10-20T14:01:21;3.10;;;1.33;;
75248;SDS011;63845;55.688;37.578;2022-10-20T14:03:50;4.25;;;1.80;;
75248;SDS011;63845;55.688;37.578;2022-10-20T14:08:53;2.72;;;1.40;;
75248;SDS011;63845;55.688;37.578;2022-10-20T14:11:19;5.20;;;1.40;;
75248;SDS011;63845;55.688;37.578;2022-10-20T14:13:45;3.58;;;1.42;;
75248;SDS011;63845;55.688;37.578;2022-10-20T14:16:18;3.33;;;1.50;;
75248;SDS011;63845;55.688;37.578;2022-10-20T14:19:00;5.80;;;1.45;;
75248;SDS011;63845;55.688;37.578;2022-10-20T14:21:43;3.80;;;1.42;;
75248;SDS011;63845;55.688;37.578;2022-10-20T14:24:32;2.97;;;1.40;;
75248;SDS011;63845;55.688;37.578;2022-10-20T14:27:01;2.88;;;1.20;;
75248;SDS011;63845;55.688;37.578;2022-10-20T14:29:32;4.45;;;1.60;;
75248;SDS011;63845;55.688;37.578;2022-10-20T14:32:02;5.97;;;1.83;;
75248;SDS011;63845;55.688;37.578;2022-10-20T14:34:29;3.38;;;1.20;;
75248;SDS011;63845;55.688;37.578;2022-10-20T14:36:58;5.25;;;1.50;;
75248;SDS011;63845;55.688;37.578;2022-10-20T14:39:28;4.32;;;1.50;;
75248;SDS011;63845;55.688;37.578;2022-10-20T14:41:58;3.75;;;1.60;;
75248;SDS011;63845;55.688;37.578;2022-10-20T14:44:24;4.75;;;1.65;;
75248;SDS011;63845;55.688;37.578;2022-10-20T14:46:51;3.28;;;1.65;;
75248;SDS011;63845;55.688;37.578;2022-10-20T14:51:58;5.28;;;2.10;;
75248;SDS011;63845;55.688;37.578;2022-10-20T14:54:31;5.75;;;1.95;;
75248;SDS011;63845;55.688;37.578;2022-10-20T14:59:34;7.97;;;2.00;;
75248;SDS011;63845;55.688;37.578;2022-10-20T15:02:11;4.35;;;1.70;;
75248;SDS011;63845;55.688;37.578;2022-10-20T15:04:43;3.65;;;1.80;;
75248;SDS011;63845;55.688;37.578;2022-10-20T15:10:14;4.20;;;1.70;;
75248;SDS011;63845;55.688;37.578;2022-10-20T15:12:42;6.97;;;1.92;;
75248;SDS011;63845;55.688;37.578;2022-10-20T15:17:45;3.47;;;1.80;;
75248;SDS011;63845;55.688;37.578;2022-10-20T15:23:00;3.88;;;1.73;;
75248;SDS011;63845;55.688;37.578;2022-10-20T15:25:30;2.90;;;1.80;;
75248;SDS011;63845;55.688;37.578;2022-10-20T15:28:00;4.57;;;2.20;;
75248;SDS011;63845;55.688;37.578;2022-10-20T15:30:25;4.38;;;2.03;;
75248;SDS011;63845;55.688;37.578;2022-10-20T15:32:52;6.32;;;2.30;;
75248;SDS011;63845;55.688;37.578;2022-10-20T15:35:18;5.97;;;1.73;;
75248;SDS011;63845;55.688;37.578;2022-10-20T15:37:48;5.60;;;1.95;;
75248;SDS011;63845;55.688;37.578;2022-10-20T15:40:15;3.60;;;1.83;;
75248;SDS011;63845;55.688;37.578;2022-10-20T15:42:41;3.20;;;1.90;;
75248;SDS011;63845;55.688;37.578;2022-10-20T15:45:11;4.15;;;1.85;;
75248;SDS011;63845;55.688;37.578;2022-10-20T15:47:40;5.20;;;2.25;;
75248;SDS011;63845;55.688;37.578;2022-10-20T15:50:06;4.90;;;1.90;;
75248;SDS011;63845;55.688;37.578;2022-10-20T15:52:32;3.13;;;1.70;;
75248;SDS011;63845;55.688;37.578;2022-10-20T15:54:57;5.97;;;2.22;;
75248;SDS011;63845;55.688;37.578;2022-10-20T15:57:22;5.40;;;2.05;;
75248;SDS011;63845;55.688;37.578;2022-10-20T15:59:48;6.47;;;2.47;;
75248;SDS011;63845;55.688;37.578;2022-10-20T16:02:15;6.90;;;2.40;;
75248;SDS011;63845;55.688;37.578;2022-10-20T16:04:41;3.50;;;2.30;;
75248;SDS011;63845;55.688;37.578;2022-10-20T16:07:06;4.30;;;2.40;;
75248;SDS011;63845;55.688;37.578;2022-10-20T16:09:32;5.88;;;2.60;;
75248;SDS011;63845;55.688;37.578;2022-10-20T16:11:57;3.97;;;2.33;;
75248;SDS011;63845;55.688;37.578;2022-10-20T16:14:22;3.00;;;2.10;;
75248;SDS011;63845;55.688;37.578;2022-10-20T16:16:48;4.38;;;2.40;;
75248;SDS011;63845;55.688;37.578;2022-10-20T16:19:13;5.82;;;2.83;;
75248;SDS011;63845;55.688;37.578;2022-10-20T16:21:39;4.57;;;2.50;;
75248;SDS011;63845;55.688;37.578;2022-10-20T16:24:05;5.13;;;2.42;;
75248;SDS011;63845;55.688;37.578;2022-10-20T16:26:30;5.05;;;2.95;;
75248;SDS011;63845;55.688;37.578;2022-10-20T16:28:56;5.07;;;2.80;;
75248;SDS011;63845;55.688;37.578;2022-10-20T16:31:21;4.57;;;2.70;;
75248;SDS011;63845;55.688;37.578;2022-10-20T16:33:46;3.70;;;2.25;;
75248;SDS011;63845;55.688;37.578;2022-10-20T16:36:14;4.88;;;2.40;;
75248;SDS011;63845;55.688;37.578;2022-10-20T16:38:43;3.97;;;2.25;;
75248;SDS011;63845;55.688;37.578;2022-10-20T16:41:09;3.50;;;2.03;;
75248;SDS011;63845;55.688;37.578;2022-10-20T16:43:37;4.00;;;2.30;;
75248;SDS011;63845;55.688;37.578;2022-10-20T16:46:04;3.90;;;2.38;;
75248;SDS011;63845;55.688;37.578;2022-10-20T16:48:30;4.28;;;2.33;;
75248;SDS011;63845;55.688;37.578;2022-10-20T16:50:56;3.67;;;2.70;;
75248;SDS011;63845;55.688;37.578;2022-10-20T16:53:21;4.10;;;2.60;;
75248;SDS011;63845;55.688;37.578;2022-10-20T16:55:51;4.93;;;2.90;;
75248;SDS011;63845;55.688;37.578;2022-10-20T16:58:18;3.65;;;2.60;;
75248;SDS011;63845;55.688;37.578;2022-10-20T17:00:44;5.22;;;3.00;;
75248;SDS011;63845;55.688;37.578;2022-10-20T17:03:09;5.80;;;3.15;;
75248;SDS011;63845;55.688;37.578;2022-10-20T17:05:35;5.35;;;3.38;;
75248;SDS011;63845;55.688;37.578;2022-10-20T17:08:00;7.72;;;3.17;;
75248;SDS011;63845;55.688;37.578;2022-10-20T17:10:25;5.10;;;3.05;;
75248;SDS011;63845;55.688;37.578;2022-10-20T17:12:51;4.40;;;2.75;;
75248;SDS011;63845;55.688;37.578;2022-10-20T17:15:16;4.57;;;3.20;;
75248;SDS011;63845;55.688;37.578;2022-10-20T17:17:42;7.10;;;3.40;;
75248;SDS011;63845;55.688;37.578;2022-10-20T17:20:07;6.45;;;3.75;;
75248;SDS011;63845;55.688;37.578;2022-10-20T17:22:33;5.38;;;3.40;;
75248;SDS011;63845;55.688;37.578;2022-10-20T17:24:58;4.05;;;2.92;;
75248;SDS011;63845;55.688;37.578;2022-10-20T17:27:24;4.20;;;2.97;;
75248;SDS011;63845;55.688;37.578;2022-10-20T17:29:49;5.20;;;2.75;;
75248;SDS011;63845;55.688;37.578;2022-10-20T17:32:15;6.28;;;2.92;;
75248;SDS011;63845;55.688;37.578;2022-10-20T17:34:40;4.57;;;3.15;;
75248;SDS011;63845;55.688;37.578;2022-10-20T17:37:05;9.05;;;3.35;;
75248;SDS011;63845;55.688;37.578;2022-10-20T17:39:31;4.60;;;3.17;;
75248;SDS011;63845;55.688;37.578;2022-10-20T17:41:56;4.93;;;3.17;;
75248;SDS011;63845;55.688;37.578;2022-10-20T17:44:22;5.88;;;3.20;;